Big Lake, AK

03:50 PM AKDT ar Medi 28, 2016 (GMT -0800)
Burkeshore Drive on Big Lake | | Change Station

Elev 154 ft 61.54 °N, 149.85 °W | Updated 3 minutes ago

Overcast
Cymylog
52.0 °F
Feels Like 52.0 °F
N
1.0
Gwynt Cyfnewidiol Gwynt from DDw
Gusts 1.0 mph

Heddiw
High -- | Low -- °F
--% Chance of Precip.
Yesterday
High -- | Low -- °F
Precip. -- mod
Gwasgedd 30.39 mod
Gwelededd 10.0 Milltiroedd
Clouds Cymylog 6000 ft
Gwlithbwynt 39 °F
Lleithder 62%
Rainfall 0.00 mod
Snow Depth Not available.
8:00 AM 7:37 PM
Waning Crescent, 4% visible
METAR PAWS 282336Z 00000KT 10SM OVC060 11/02 A3039 RMK AO1
Gwasgedd 30.39 mod
Gwelededd 10.0 Milltiroedd
Clouds Cymylog 6000 ft
Gwlithbwynt 39 °F
Lleithder 62%
Rainfall 0.00 mod
Snow Depth Not available.
8:00 AM 7:37 PM
Waning Crescent, 4% visible
METAR PAWS 282336Z 00000KT 10SM OVC060 11/02 A3039 RMK AO1

10-Day Weather Forecast

Almanac

Astronomy

Sep. 28, 2016 Rise Set
Actual Time
Civil Twilight
Nautical Twilight
Astronomical Twilight
Moon
Length Of Visible Light
Length of Day
Tomorrow will be .
, % of the Moon is Illuminated

Today's Extremes

State Highs State Lows

Community

WunderPhotos

Upload Photos

1,942,354 photos uploaded!

WunderBlog® & News

Nearby

Air Quality

  Air Quality AQ Index Pollutant
Not available.

Snow Depth

Station Depth Elevation

Earthquake Activity

City Distance Mag. Time & Date
Minimum magnitude displayed is 2.5.

Coastal Water Temperatures

Lle Tymheredd

Stations

Nearby Weather Stations

Station Location Temp Oerfel Gwynt Gwlithbwynt Lleithder Gwynt Precip. Elev Diweddarwyd Type
                   

Watches & Warnings

There are currently no watches in effect.